Time;durP1;ratioP1;P1;durP2;ratioP2;P2;SDS_P1;SDS_P2;PMS_P1;PMS_P2;Temp;Humidity;BMP_temperature;BMP_pressure;BME280_temperature;BME280_humidity;BME280_pressure;Samples;Min_cycle;Max_cycle;Signal;HPM_P1;HPM_P2
2023/03/16 00:02:03;;;;;;;;;1.67;1.00;;;;;12.88;52.32;99953.16;4997277;28;45434;-77
2023/03/16 00:04:29;;;;;;;;;2.00;1.00;;;;;12.80;52.67;99944.34;4997750;28;46122;-73
2023/03/16 00:06:55;;;;;;;;;0.00;0.00;;;;;12.77;52.70;99949.53;4997349;28;45479;-67
2023/03/16 00:09:21;;;;;;;;;0.67;0.00;;;;;12.82;52.18;99955.72;4997816;28;45494;-81
2023/03/16 00:11:46;;;;;;;;;0.33;0.00;;;;;12.76;51.99;99938.16;4996127;28;45431;-72
2023/03/16 00:14:12;;;;;;;;;0.00;0.00;;;;;12.80;52.26;99945.19;4997601;28;45261;-80
2023/03/16 00:16:37;;;;;;;;;0.00;0.00;;;;;12.72;52.58;99928.50;4997678;28;45551;-79
2023/03/16 00:19:04;;;;;;;;;0.00;0.00;;;;;12.83;51.20;99929.53;4997365;28;45451;-81
2023/03/16 00:21:31;;;;;;;;;0.00;0.00;;;;;12.91;50.41;99922.63;4997604;28;45354;-78
2023/03/16 00:23:57;;;;;;;;;0.00;0.00;;;;;12.96;50.77;99924.41;4997192;28;46260;-69
2023/03/16 00:26:24;;;;;;;;;0.00;0.00;;;;;12.89;50.82;99899.84;4997183;28;45230;-79
2023/03/16 00:28:53;;;;;;;;;0.25;0.25;;;;;12.98;51.03;99928.78;4997347;28;45510;-76
2023/03/16 00:31:19;;;;;;;;;1.00;0.00;;;;;12.92;51.76;99923.50;4997373;28;45373;-69
2023/03/16 00:33:44;;;;;;;;;0.00;0.00;;;;;12.92;50.92;99929.59;4997437;28;45488;-73
2023/03/16 00:36:10;;;;;;;;;0.00;0.00;;;;;12.89;50.59;99916.47;4997242;28;45384;-79
2023/03/16 00:38:43;;;;;;;;;0.00;0.00;;;;;12.97;50.54;99916.56;4997720;28;45399;-78
2023/03/16 00:41:09;;;;;;;;;0.67;0.33;;;;;12.98;50.64;99909.56;4997525;28;45411;-73
2023/03/16 00:43:39;;;;;;;;;1.00;0.00;;;;;12.94;51.16;99898.16;4996996;28;45463;-79
2023/03/16 00:46:06;;;;;;;;;0.50;0.00;;;;;12.94;49.77;99899.03;4997367;28;46121;-80
2023/03/16 00:48:33;;;;;;;;;0.00;0.00;;;;;12.97;49.86;99902.56;4997420;28;45518;-77
2023/03/16 00:51:05;;;;;;;;;0.00;0.00;;;;;12.99;49.97;99904.34;4997462;28;45487;-79
2023/03/16 00:53:32;;;;;;;;;0.00;0.00;;;;;13.06;49.15;99902.66;4997280;28;45410;-79
2023/03/16 00:55:58;;;;;;;;;0.00;0.00;;;;;13.10;48.58;99899.19;4997123;28;45493;-73
2023/03/16 00:58:24;;;;;;;;;0.00;0.00;;;;;13.16;48.75;99890.50;4997738;28;45490;-79
2023/03/16 01:00:52;;;;;;;;;0.00;0.00;;;;;13.21;48.69;99894.03;4997539;28;45384;-76
2023/03/16 01:03:17;;;;;;;;;0.00;0.00;;;;;13.24;48.50;99888.81;4977906;28;46480;-74
2023/03/16 01:05:44;;;;;;;;;0.00;0.00;;;;;13.23;48.25;99884.44;4976950;28;45359;-82
2023/03/16 01:08:10;;;;;;;;;0.00;0.00;;;;;13.36;47.66;99888.09;4995411;28;45503;-67
2023/03/16 01:10:36;;;;;;;;;0.00;0.00;;;;;13.39;47.78;99882.84;4996205;28;45320;-71
2023/03/16 01:13:01;;;;;;;;;0.00;0.00;;;;;13.37;47.73;99884.56;4995584;28;45581;-80
2023/03/16 01:15:31;;;;;;;;;0.00;0.00;;;;;13.35;47.61;99883.69;4981481;28;45588;-78
2023/03/16 01:17:56;;;;;;;;;0.00;0.00;;;;;13.30;47.96;99889.78;4996506;28;45428;-79
2023/03/16 01:20:22;;;;;;;;;0.00;0.00;;;;;13.24;47.52;99878.34;4996409;28;45367;-78
2023/03/16 01:22:48;;;;;;;;;1.67;0.00;;;;;13.30;47.66;99888.91;4995974;28;45592;-81
2023/03/16 01:25:14;;;;;;;;;0.00;0.00;;;;;13.32;47.84;99879.31;5000194;28;45430;-77
2023/03/16 01:27:39;;;;;;;;;0.00;0.00;;;;;13.42;47.15;99882.88;5000059;28;45453;-74
2023/03/16 01:30:05;;;;;;;;;0.00;0.00;;;;;13.39;47.43;99872.34;5000294;28;45553;-70
2023/03/16 01:32:31;;;;;;;;;1.00;0.33;;;;;13.40;47.79;99884.63;5000243;28;45379;-81
2023/03/16 01:34:57;;;;;;;;;0.00;0.00;;;;;13.28;48.13;99867.00;4999843;28;45609;-82
2023/03/16 01:37:23;;;;;;;;;1.00;0.00;;;;;13.33;47.48;99875.84;4999602;28;45461;-81
2023/03/16 01:39:49;;;;;;;;;0.00;0.00;;;;;13.37;47.66;99877.63;4999659;28;45245;-77
2023/03/16 01:42:14;;;;;;;;;0.00;0.00;;;;;13.32;47.64;99856.56;4999878;28;46341;-81
2023/03/16 01:44:55;;;;;;;;;0.00;0.00;;;;;13.29;47.24;99847.75;4999536;28;45483;-80
2023/03/16 01:47:22;;;;;;;;;0.00;0.00;;;;;13.39;47.53;99859.22;4999861;28;45425;-81
2023/03/16 01:49:53;;;;;;;;;0.00;0.00;;;;;13.46;46.78;99858.44;4998842;28;45451;-78
2023/03/16 01:52:24;;;;;;;;;1.00;0.00;;;;;13.53;46.69;99855.00;4999313;28;45477;-80
2023/03/16 01:55:00;;;;;;;;;1.00;1.00;;;;;13.56;46.50;99854.13;4999447;28;45490;-74
2023/03/16 01:57:34;;;;;;;;;1.00;1.00;;;;;13.63;46.23;99855.94;4999819;28;45356;-76
2023/03/16 02:00:09;;;;;;;;;0.00;0.00;;;;;13.66;45.63;99848.94;4985290;28;45422;-78
2023/03/16 02:02:38;;;;;;;;;0.00;0.00;;;;;13.67;46.15;99840.19;4998877;28;45644;-81
2023/03/16 02:05:14;;;;;;;;;0.67;0.00;;;;;13.73;45.50;99840.25;4998863;28;45382;-73
2023/03/16 02:07:45;;;;;;;;;0.00;0.00;;;;;13.76;45.68;99835.88;4998728;28;45551;-80
2023/03/16 02:10:13;;;;;;;;;0.33;0.33;;;;;13.78;44.98;99829.75;4999295;28;45213;-80
2023/03/16 02:12:39;;;;;;;;;1.00;0.00;;;;;13.80;45.13;99835.88;4999002;28;45913;-75
2023/03/16 02:15:05;;;;;;;;;1.00;0.33;;;;;13.76;45.07;99828.00;4998697;28;45473;-69
2023/03/16 02:17:33;;;;;;;;;0.00;0.00;;;;;13.83;45.13;99832.44;4998855;28;45355;-73
2023/03/16 02:20:07;;;;;;;;;0.67;0.00;;;;;13.84;44.87;99831.53;4999768;28;45416;-82
2023/03/16 02:22:35;;;;;;;;;0.00;0.00;;;;;13.85;44.91;99831.56;4999032;28;45430;-81
2023/03/16 02:25:00;;;;;;;;;0.00;0.00;;;;;13.78;44.82;99808.75;4999103;28;45170;-73
2023/03/16 02:27:52;;;;;;;;;0.00;0.00;;;;;13.89;44.54;99821.94;4998640;28;45285;-73
2023/03/16 02:30:20;;;;;;;;;0.00;0.00;;;;;13.87;44.46;99808.81;4999002;28;45483;-79
2023/03/16 02:32:51;;;;;;;;;0.00;0.00;;;;;13.89;44.83;99811.44;4998563;28;45481;-81
2023/03/16 02:35:16;;;;;;;;;0.00;0.00;;;;;13.89;44.43;99812.31;4997751;28;45558;-74
2023/03/16 02:37:42;;;;;;;;;0.67;0.00;;;;;13.92;43.89;99800.94;4998314;28;45457;-80
2023/03/16 02:40:35;;;;;;;;;1.00;0.00;;;;;13.93;43.96;99800.97;4998651;28;45494;-78
2023/03/16 02:43:03;;;;;;;;;0.33;0.00;;;;;13.94;44.21;99793.94;4993968;28;48175;-80
2023/03/16 02:45:53;;;;;;;;;1.00;0.00;;;;;13.95;43.63;99795.72;4998957;28;45398;-81
2023/03/16 02:48:48;;;;;;;;;0.67;0.00;;;;;13.94;43.92;99780.81;4998662;28;45250;-81
2023/03/16 02:51:14;;;;;;;;;0.00;0.00;;;;;13.87;43.80;99765.94;4994270;28;45482;-81
2023/03/16 02:53:39;;;;;;;;;1.00;1.00;;;;;13.89;43.88;99765.06;4998952;28;45489;-80
2023/03/16 02:56:05;;;;;;;;;0.00;0.00;;;;;13.90;43.99;99765.94;5000593;28;45467;-72
2023/03/16 02:58:31;;;;;;;;;1.00;0.00;;;;;13.91;43.59;99767.69;4998763;28;45431;-74
2023/03/16 03:00:57;;;;;;;;;0.67;0.00;;;;;13.93;43.78;99765.94;4998427;28;45735;-78
2023/03/16 03:03:23;;;;;;;;;0.00;0.00;;;;;13.93;43.70;99761.56;4997760;28;45939;-78
2023/03/16 03:05:48;;;;;;;;;0.00;0.00;;;;;13.94;44.01;99759.81;4998078;28;45513;-76
2023/03/16 03:08:15;;;;;;;;;0.00;0.00;;;;;13.90;44.10;99748.41;4998396;28;45367;-80
2023/03/16 03:10:41;;;;;;;;;0.00;0.00;;;;;13.86;44.04;99745.78;4998723;28;45335;-78
2023/03/16 03:13:06;;;;;;;;;0.00;0.00;;;;;13.84;44.31;99740.53;4997342;28;45328;-78
2023/03/16 03:15:33;;;;;;;;;0.00;0.00;;;;;13.75;44.17;99727.38;4997874;28;45962;-74
2023/03/16 03:17:58;;;;;;;;;0.67;0.00;;;;;13.78;44.41;99729.13;4997850;28;45343;-76
2023/03/16 03:20:24;;;;;;;;;0.00;0.00;;;;;13.76;43.89;99730.88;4998288;28;45386;-78
2023/03/16 03:22:51;;;;;;;;;0.00;0.00;;;;;13.66;44.39;99709.81;4993132;28;46403;-81
2023/03/16 03:25:18;;;;;;;;;0.33;0.00;;;;;13.66;44.05;99709.81;4994672;28;45778;-80
2023/03/16 03:27:44;;;;;;;;;0.33;0.00;;;;;13.75;43.48;99723.84;4997534;28;45534;-76
2023/03/16 03:30:16;;;;;;;;;0.00;0.00;;;;;13.81;43.16;99723.91;4997710;28;45537;-81
2023/03/16 03:32:42;;;;;;;;;0.00;0.00;;;;;13.89;41.66;99716.94;4996781;28;45590;-79
2023/03/16 03:35:11;;;;;;;;;0.00;0.00;;;;;14.01;40.78;99702.97;4996961;28;45605;-80
2023/03/16 03:37:37;;;;;;;;;1.00;0.00;;;;;14.20;40.68;99714.38;4993318;28;45443;-68
2023/03/16 03:40:04;;;;;;;;;0.00;0.00;;;;;14.28;40.64;99708.28;4992194;28;45434;-81
2023/03/16 03:42:30;;;;;;;;;1.00;0.00;;;;;14.37;39.93;99707.41;4998027;28;45640;-79
2023/03/16 03:44:55;;;;;;;;;0.00;0.00;;;;;14.51;39.70;99713.53;4997238;28;45488;-73
2023/03/16 03:47:21;;;;;;;;;0.00;0.00;;;;;14.62;39.81;99704.81;4997371;28;45323;-75
2023/03/16 03:49:47;;;;;;;;;0.00;0.00;;;;;14.70;39.85;99706.56;4997324;28;45703;-74
2023/03/16 03:52:12;;;;;;;;;1.00;0.00;;;;;14.70;39.48;99687.28;4997693;28;45375;-73
2023/03/16 03:54:38;;;;;;;;;0.00;0.00;;;;;14.84;38.93;99703.03;4997356;28;45516;-74
2023/03/16 03:57:04;;;;;;;;;0.00;0.00;;;;;14.88;38.76;99707.41;5013165;28;45526;-75
2023/03/16 03:59:30;;;;;;;;;1.00;0.00;;;;;14.96;38.40;99700.41;4997779;28;45493;-76
2023/03/16 04:01:55;;;;;;;;;0.00;0.00;;;;;15.04;37.96;99703.91;5015211;28;46815;-73
2023/03/16 04:04:21;;;;;;;;;0.00;0.00;;;;;15.13;38.06;99712.66;4995752;28;45236;-69
2023/03/16 04:06:46;;;;;;;;;0.67;0.00;;;;;15.08;38.41;99700.38;5003925;28;45502;-73
2023/03/16 04:09:12;;;;;;;;;0.00;0.00;;;;;15.13;38.82;99712.66;5013970;28;45395;-77
2023/03/16 04:11:43;;;;;;;;;1.00;0.00;;;;;15.09;38.82;99699.50;5014944;28;45241;-76
2023/03/16 04:14:28;;;;;;;;;0.00;0.00;;;;;15.03;38.95;99706.53;5011143;28;45353;-72
2023/03/16 04:16:59;;;;;;;;;1.00;0.00;;;;;14.98;39.33;99697.75;5006988;28;45498;-76
2023/03/16 04:19:30;;;;;;;;;0.00;0.00;;;;;14.89;39.35;99693.41;5008435;28;45193;-77
2023/03/16 04:21:55;;;;;;;;;1.00;0.00;;;;;14.86;39.67;99699.56;5003258;28;45327;-69
2023/03/16 04:24:36;;;;;;;;;0.00;0.00;;;;;14.79;39.78;99695.16;5011823;28;45477;-79
2023/03/16 04:27:02;;;;;;;;;0.00;0.00;;;;;14.76;39.38;99687.25;4997590;28;45370;-81
2023/03/16 04:29:28;;;;;;;;;0.00;0.00;;;;;14.70;39.60;99671.50;4996757;28;47074;-82
2023/03/16 04:31:54;;;;;;;;;0.00;0.00;;;;;14.73;39.77;99675.91;4996742;28;45951;-81
2023/03/16 04:34:23;;;;;;;;;0.00;0.00;;;;;14.71;39.46;99675.91;4996833;28;45423;-80
2023/03/16 04:36:52;;;;;;;;;0.00;0.00;;;;;14.70;39.67;99664.50;4997013;28;45338;-78
2023/03/16 04:39:19;;;;;;;;;2.00;0.00;;;;;14.74;39.05;99667.13;4997022;28;45444;-80
2023/03/16 04:41:44;;;;;;;;;0.00;0.00;;;;;14.72;39.32;99656.59;4997041;28;46173;-81
2023/03/16 04:44:10;;;;;;;;;0.00;0.00;;;;;14.70;39.63;99653.09;4996399;28;45292;-70
2023/03/16 04:46:36;;;;;;;;;0.00;0.00;;;;;14.76;38.71;99652.22;4996379;28;45550;-81
2023/03/16 04:49:01;;;;;;;;;0.00;0.00;;;;;14.83;38.18;99646.09;4996724;28;45208;-82
2023/03/16 04:51:27;;;;;;;;;0.00;0.00;;;;;14.91;37.68;99639.06;5011955;28;45572;-81
2023/03/16 04:53:53;;;;;;;;;0.00;0.00;;;;;15.02;37.50;99641.63;4996099;28;45419;-81
2023/03/16 04:56:19;;;;;;;;;1.00;0.00;;;;;15.09;37.00;99639.00;4996666;28;45384;-81
2023/03/16 04:58:47;;;;;;;;;0.00;0.00;;;;;15.19;37.16;99623.19;5000043;28;45462;-82
2023/03/16 05:01:13;;;;;;;;;0.00;0.00;;;;;15.22;37.45;99633.69;5000686;28;46236;-78
2023/03/16 05:03:38;;;;;;;;;0.00;0.00;;;;;15.22;37.80;99631.06;5001084;28;45356;-82
2023/03/16 05:06:04;;;;;;;;;0.00;0.00;;;;;15.18;37.80;99618.78;5000897;28;45474;-82
2023/03/16 05:08:30;;;;;;;;;0.00;0.00;;;;;15.18;37.60;99622.31;5001136;28;45308;-82
2023/03/16 05:10:56;;;;;;;;;0.00;0.00;;;;;15.18;37.39;99624.97;4999306;28;45494;-82
2023/03/16 05:13:22;;;;;;;;;0.00;0.00;;;;;15.16;37.84;99620.56;5000838;28;45309;-80
2023/03/16 05:15:47;;;;;;;;;0.00;0.00;;;;;15.10;38.01;99617.09;5000586;28;45372;-82
2023/03/16 05:18:13;;;;;;;;;0.00;0.00;;;;;15.07;37.96;99613.59;5000906;28;45299;-79
2023/03/16 05:20:40;;;;;;;;;0.33;0.00;;;;;14.94;38.02;99590.81;5000807;28;45173;-81
2023/03/16 05:23:07;;;;;;;;;0.00;0.00;;;;;15.01;37.89;99603.09;5015631;28;45482;-81
2023/03/16 05:25:33;;;;;;;;;1.00;1.00;;;;;14.97;37.83;99602.22;4998975;28;45720;-83
2023/03/16 05:27:59;;;;;;;;;0.00;0.00;;;;;14.99;37.91;99592.56;4997226;28;45451;-81
2023/03/16 05:30:25;;;;;;;;;0.00;0.00;;;;;14.98;37.58;99592.56;4999136;28;45620;-81
2023/03/16 05:32:51;;;;;;;;;0.00;0.00;;;;;15.00;37.89;99596.06;4998960;28;45393;-81
2023/03/16 05:35:16;;;;;;;;;0.00;0.00;;;;;14.99;38.00;99587.31;4999746;28;45186;-81
2023/03/16 05:37:42;;;;;;;;;0.00;0.00;;;;;14.98;37.90;99584.66;5000249;28;45555;-81
2023/03/16 05:40:15;;;;;;;;;0.00;0.00;;;;;14.97;38.17;99582.94;4999077;28;46091;-79
2023/03/16 05:42:42;;;;;;;;;0.33;0.00;;;;;14.93;38.29;99586.47;4999437;28;45380;-81
2023/03/16 05:45:08;;;;;;;;;1.00;0.00;;;;;14.87;38.38;99576.84;4998271;28;45413;-80
2023/03/16 05:47:36;;;;;;;;;1.33;0.00;;;;;14.87;38.29;99582.94;4999066;28;45594;-82
2023/03/16 05:50:05;;;;;;;;;0.33;0.33;;;;;14.85;38.19;99571.56;4999066;28;45645;-81
2023/03/16 05:52:31;;;;;;;;;1.00;1.00;;;;;14.84;38.53;99579.47;4999359;28;45376;-81
2023/03/16 05:54:56;;;;;;;;;3.50;3.50;;;;;14.80;38.23;99573.34;4999550;28;45506;-82
2023/03/16 05:57:22;;;;;;;;;0.67;0.67;;;;;14.72;38.60;99559.31;5000332;28;45546;-81
2023/03/16 05:59:48;;;;;;;;;8.00;7.00;;;;;14.75;38.86;99583.00;4997174;28;46209;-78
2023/03/16 06:02:13;;;;;;;;;3.00;3.00;;;;;14.66;39.30;99564.59;5000059;28;45257;-71
2023/03/16 06:04:39;;;;;;;;;2.00;1.33;;;;;14.72;38.69;99590.88;4999092;28;45375;-71
2023/03/16 06:07:04;;;;;;;;;19.75;17.25;;;;;14.67;39.50;99584.78;4998916;28;45905;-66
2023/03/16 06:09:30;;;;;;;;;6.25;5.75;;;;;14.61;40.01;99587.41;4997475;28;45922;-75
2023/03/16 06:11:55;;;;;;;;;1.00;1.00;;;;;14.56;40.02;99583.88;4998436;28;46505;-74
2023/03/16 06:14:22;;;;;;;;;0.67;0.67;;;;;14.52;39.50;99585.63;4998503;28;45542;-66
2023/03/16 06:16:47;;;;;;;;;2.00;1.00;;;;;14.53;39.23;99579.50;4998896;28;45335;-74
2023/03/16 06:19:13;;;;;;;;;17.00;15.75;;;;;14.49;39.41;99569.88;4997852;28;46032;-71
2023/03/16 06:21:38;;;;;;;;;122.00;103.00;;;;;14.47;39.38;99562.00;4998410;28;45395;-81
2023/03/16 06:24:06;;;;;;;;;2.00;1.00;;;;;14.53;39.62;99569.84;4998518;28;45546;-78
2023/03/16 06:26:32;;;;;;;;;0.33;0.00;;;;;14.53;39.52;99559.34;4998887;28;45482;-74
2023/03/16 06:28:57;;;;;;;;;1.00;1.00;;;;;14.51;40.03;99563.72;4998733;28;45452;-72
2023/03/16 06:31:23;;;;;;;;;0.67;0.67;;;;;14.52;39.16;99561.97;5007395;28;45438;-72
2023/03/16 06:33:48;;;;;;;;;6.50;5.50;;;;;14.51;40.16;99565.50;5002476;28;45438;-71
2023/03/16 06:36:14;;;;;;;;;0.00;0.00;;;;;14.51;39.65;99562.88;5001734;28;45404;-81
2023/03/16 06:38:39;;;;;;;;;0.67;0.33;;;;;14.47;39.77;99553.25;5000634;28;45394;-81
2023/03/16 06:41:05;;;;;;;;;0.00;0.00;;;;;14.53;40.30;99564.59;5000320;28;45591;-82
2023/03/16 06:43:30;;;;;;;;;3.00;2.00;;;;;14.45;39.79;99540.09;5000469;28;46189;-81
2023/03/16 06:45:57;;;;;;;;;0.00;0.00;;;;;14.51;39.97;99537.44;5001859;28;45490;-80
2023/03/16 06:48:23;;;;;;;;;11.50;10.00;;;;;14.61;39.47;99550.63;5000667;28;45526;-81
2023/03/16 06:50:48;;;;;;;;;4.00;3.75;;;;;14.59;38.82;99531.34;4999809;28;45469;-81
2023/03/16 06:53:14;;;;;;;;;3.75;3.00;;;;;14.76;38.79;99549.69;5000300;28;45522;-81
2023/03/16 06:55:40;;;;;;;;;2.50;2.50;;;;;14.78;39.74;99556.72;5002384;28;45473;-82
2023/03/16 06:58:06;;;;;;;;;1.00;1.00;;;;;14.88;38.33;99541.75;5002078;28;45526;-77
2023/03/16 07:00:32;;;;;;;;;11.75;10.25;;;;;14.97;38.54;99554.00;5005327;28;45325;-81
2023/03/16 07:02:59;;;;;;;;;9.00;8.50;;;;;15.03;38.68;99561.88;5004206;28;45337;-81
2023/03/16 07:05:24;;;;;;;;;5.00;4.00;;;;;15.01;37.69;99546.09;5000643;28;45708;-81
2023/03/16 07:07:50;;;;;;;;;0.67;0.67;;;;;15.14;37.78;99557.44;4999153;28;45683;-79
2023/03/16 07:10:18;;;;;;;;;3.00;2.00;;;;;15.22;37.79;99560.03;5000026;28;45865;-68
2023/03/16 07:12:44;;;;;;;;;2.00;2.00;;;;;15.27;37.99;99558.25;4999930;28;45542;-81
2023/03/16 07:15:11;;;;;;;;;5.00;4.50;;;;;15.31;38.15;99563.47;5000752;28;46426;-81
2023/03/16 07:17:37;;;;;;;;;1.67;1.00;;;;;15.25;38.63;99553.00;5000387;28;46029;-82
2023/03/16 07:20:04;;;;;;;;;9.25;8.25;;;;;15.59;38.75;99568.59;4999911;28;45383;-76
2023/03/16 07:22:31;;;;;;;;;0.00;0.00;;;;;18.37;33.58;99564.53;4995621;28;45458;-68
2023/03/16 07:24:57;;;;;;;;;1.67;0.33;;;;;21.59;30.05;99565.72;5001214;28;45534;-74
2023/03/16 07:27:23;;;;;;;;;1.00;0.33;;;;;23.91;27.63;99556.66;4988400;28;45532;-76
2023/03/16 07:29:51;;;;;;;;;3.33;3.33;;;;;25.51;25.84;99549.69;4999295;28;45611;-79
2023/03/16 07:32:17;;;;;;;;;1.00;1.00;;;;;26.94;24.40;99550.56;4991876;28;45767;-68
2023/03/16 07:34:43;;;;;;;;;40.25;33.50;;;;;28.09;23.67;99548.69;5003046;28;45364;-80
2023/03/16 07:37:09;;;;;;;;;3.00;2.00;;;;;29.38;21.97;99553.41;5001915;28;45970;-82
2023/03/16 07:39:35;;;;;;;;;1.67;1.00;;;;;30.57;20.70;99557.28;5001904;28;45969;-81
2023/03/16 07:42:01;;;;;;;;;1.00;0.00;;;;;31.32;19.10;99548.44;4999271;28;45382;-81
2023/03/16 07:44:26;;;;;;;;;1.00;1.00;;;;;31.77;19.07;99531.72;5001729;28;45775;-77
2023/03/16 07:46:52;;;;;;;;;1.00;0.00;;;;;32.26;20.11;99541.56;4996652;28;46073;-76
2023/03/16 07:49:18;;;;;;;;;43.75;36.75;;;;;33.23;17.76;99556.53;4995787;28;45473;-76
2023/03/16 07:51:44;;;;;;;;;5.67;5.00;;;;;33.88;17.33;99557.59;4997296;28;45443;-82
2023/03/16 07:54:10;;;;;;;;;4.67;4.67;;;;;34.22;17.10;99549.38;4996613;28;45657;-76
2023/03/16 07:56:35;;;;;;;;;3.33;3.33;;;;;34.46;18.09;99561.78;4996775;28;45549;-81
2023/03/16 07:59:01;;;;;;;;;2.67;2.67;;;;;35.32;16.00;99550.78;4996704;28;45558;-81
2023/03/16 08:01:27;;;;;;;;;2.33;2.33;;;;;35.93;15.38;99558.81;4996849;28;45584;-67
2023/03/16 08:03:53;;;;;;;;;0.00;0.00;;;;;36.35;15.31;99557.72;4995733;28;45528;-81
2023/03/16 08:06:20;;;;;;;;;0.00;0.00;;;;;36.60;15.02;99546.25;4997017;28;45447;-82
2023/03/16 08:08:46;;;;;;;;;2.67;2.33;;;;;36.54;13.58;99546.81;4997488;28;45287;-78
2023/03/16 08:11:12;;;;;;;;;1.33;1.33;;;;;36.73;14.50;99567.75;4997380;28;45614;-72
2023/03/16 08:13:37;;;;;;;;;0.67;0.33;;;;;37.10;14.45;99552.44;4996883;28;45496;-78
2023/03/16 08:16:04;;;;;;;;;0.00;0.00;;;;;37.00;14.31;99558.78;4996912;28;46081;-75
2023/03/16 08:18:30;;;;;;;;;0.67;0.67;;;;;36.86;15.11;99575.56;4997484;28;45528;-77
2023/03/16 08:20:56;;;;;;;;;2.67;2.67;;;;;36.79;15.14;99572.59;4997548;28;45239;-74
2023/03/16 08:23:23;;;;;;;;;3.00;2.33;;;;;36.82;15.87;99576.88;4996741;28;45605;-74
2023/03/16 08:25:54;;;;;;;;;2.00;2.00;;;;;37.47;14.78;99565.22;4995800;28;45523;-73
2023/03/16 08:28:20;;;;;;;;;11.67;10.67;;;;;37.77;14.48;99573.09;4996044;28;45470;-73
2023/03/16 08:30:51;;;;;;;;;7.00;5.00;;;;;37.33;14.46;99566.59;4996418;28;45549;-74
2023/03/16 08:33:18;;;;;;;;;1.00;1.00;;;;;36.75;15.23;99570.28;4995514;28;45482;-72
2023/03/16 08:35:44;;;;;;;;;2.67;2.67;;;;;37.46;15.00;99575.25;4995878;28;46221;-77
2023/03/16 08:38:11;;;;;;;;;2.33;2.00;;;;;38.04;13.87;99582.22;4996142;28;45486;-77
2023/03/16 08:40:40;;;;;;;;;1.33;1.00;;;;;38.16;13.96;99566.53;4989142;28;45530;-71
2023/03/16 08:43:06;;;;;;;;;4.00;4.00;;;;;38.69;13.32;99578.44;4999208;28;45525;-77
2023/03/16 08:45:32;;;;;;;;;3.33;3.33;;;;;39.13;13.71;99572.97;4994139;28;46311;-77
2023/03/16 08:47:58;;;;;;;;;3.33;2.00;;;;;39.17;12.77;99577.91;4995879;28;45512;-76
2023/03/16 08:50:24;;;;;;;;;1.67;1.33;;;;;39.16;13.21;99567.19;4994473;28;45463;-75
2023/03/16 08:52:49;;;;;;;;;0.67;0.67;;;;;39.54;14.14;99570.47;4995942;28;45427;-70
2023/03/16 08:55:15;;;;;;;;;1.33;0.67;;;;;40.10;12.22;99568.06;4995912;28;46281;-68
2023/03/16 08:57:43;;;;;;;;;2.67;1.33;;;;;39.84;13.58;99569.00;5005404;28;45402;-76
2023/03/16 09:00:13;;;;;;;;;2.67;1.67;;;;;40.12;13.73;99575.06;5004066;28;45780;-76
2023/03/16 09:02:40;;;;;;;;;0.33;0.00;;;;;40.05;12.75;99559.50;5001705;28;45621;-75
2023/03/16 09:05:11;;;;;;;;;0.67;0.00;;;;;39.65;12.48;99567.41;5005141;28;45506;-76
2023/03/16 09:07:38;;;;;;;;;0.33;0.33;;;;;39.62;12.15;99561.44;5002456;28;45506;-74
2023/03/16 09:10:07;;;;;;;;;1.00;1.00;;;;;39.26;13.23;99556.13;4996914;28;45529;-71
2023/03/16 09:12:36;;;;;;;;;0.00;0.00;;;;;38.79;12.03;99560.09;5003036;28;45498;-76
2023/03/16 09:15:03;;;;;;;;;0.00;0.00;;;;;38.51;12.00;99557.47;5004535;28;46162;-68
2023/03/16 09:17:28;;;;;;;;;2.00;1.00;;;;;38.44;13.16;99552.78;5013651;28;45618;-76
2023/03/16 09:19:54;;;;;;;;;0.67;0.67;;;;;38.72;13.36;99557.16;5009792;28;45503;-73
2023/03/16 09:22:20;;;;;;;;;0.67;0.67;;;;;38.69;13.05;99546.53;5005305;28;46749;-76
2023/03/16 09:24:47;;;;;;;;;4.67;2.33;;;;;38.52;13.31;99553.78;4996676;28;45521;-78
2023/03/16 09:27:14;;;;;;;;;5.67;4.67;;;;;37.84;13.57;99547.94;4995244;28;45456;-78
2023/03/16 09:29:40;;;;;;;;;25.67;23.67;;;;;36.88;14.41;99537.34;4988452;28;45626;-71
2023/03/16 09:32:06;;;;;;;;;15.33;14.67;;;;;36.24;15.36;99554.16;4994574;28;45703;-78
2023/03/16 09:34:33;;;;;;;;;0.00;0.00;;;;;35.69;15.36;99553.78;4995704;28;46209;-77
2023/03/16 09:36:59;;;;;;;;;1.00;0.00;;;;;35.11;16.69;99550.81;4995912;28;45378;-78
2023/03/16 09:39:24;;;;;;;;;0.00;0.00;;;;;34.74;16.09;99549.47;4996128;28;45455;-68
2023/03/16 09:41:58;;;;;;;;;3.00;3.00;;;;;34.59;17.16;99567.91;4996252;28;45330;-79
2023/03/16 09:45:08;;;;;;;;;0.00;0.00;;;;;34.54;16.68;99570.16;4996110;28;46535;-76
2023/03/16 09:47:35;;;;;;;;;9.00;9.00;;;;;34.37;16.45;99563.44;4997520;28;45648;-74
2023/03/16 09:50:06;;;;;;;;;0.00;0.00;;;;;33.63;16.50;99564.16;4998795;28;45536;-74
2023/03/16 09:52:47;;;;;;;;;0.00;0.00;;;;;33.73;17.28;99556.16;4998994;28;47627;-77
2023/03/16 09:55:26;;;;;;;;;1.00;0.00;;;;;33.85;17.20;99563.25;4997987;28;45576;-79
2023/03/16 09:57:52;;;;;;;;;7.50;6.50;;;;;33.81;17.48;99566.34;4998280;28;45536;-68
2023/03/16 10:00:26;;;;;;;;;0.00;0.00;;;;;34.02;17.03;99567.28;4999096;28;45468;-78
2023/03/16 10:03:07;;;;;;;;;1.00;0.67;;;;;34.08;16.20;99566.75;4998487;28;45253;-80
2023/03/16 10:05:33;;;;;;;;;0.00;0.00;;;;;33.98;16.19;99552.25;4997372;28;46091;-71
2023/03/16 10:08:07;;;;;;;;;0.33;0.33;;;;;34.19;16.44;99568.59;5002688;28;45541;-79
2023/03/16 10:10:42;;;;;;;;;0.67;0.67;;;;;34.54;16.11;99562.03;4997984;28;45458;-78
2023/03/16 10:13:34;;;;;;;;;0.00;0.00;;;;;34.34;16.44;99557.44;5004360;28;45807;-79
2023/03/16 10:16:07;;;;;;;;;0.00;0.00;;;;;34.12;16.74;99542.94;5001827;28;45944;-77
2023/03/16 10:18:42;;;;;;;;;1.00;0.00;;;;;34.03;16.95;99557.28;4996628;28;45882;-80
2023/03/16 10:21:13;;;;;;;;;1.00;1.00;;;;;34.25;16.04;99562.66;4998781;28;45922;-83
2023/03/16 10:23:41;;;;;;;;;0.00;0.00;;;;;34.50;16.76;99566.00;4991786;28;45546;-69
2023/03/16 10:26:22;;;;;;;;;0.00;0.00;;;;;34.57;15.09;99559.03;4997945;28;46095;-75
2023/03/16 10:28:48;;;;;;;;;0.33;0.00;;;;;34.41;15.93;99548.63;4997589;28;45506;-75
2023/03/16 10:31:16;;;;;;;;;0.00;0.00;;;;;34.30;15.66;99556.81;4998391;28;45545;-70
2023/03/16 10:33:42;;;;;;;;;0.67;0.67;;;;;34.08;15.88;99549.63;4998444;28;45395;-79
2023/03/16 10:36:33;;;;;;;;;0.33;0.00;;;;;33.82;16.84;99551.81;4998177;28;45356;-80
2023/03/16 10:39:11;;;;;;;;;13.33;12.00;;;;;33.73;16.98;99550.72;4998705;28;45427;-80
2023/03/16 10:41:41;;;;;;;;;2.33;2.00;;;;;33.45;16.56;99533.16;4998234;28;45367;-78
2023/03/16 10:44:15;;;;;;;;;0.33;0.33;;;;;33.40;16.37;99533.50;4999120;28;45720;-80
2023/03/16 10:46:47;;;;;;;;;1.67;1.00;;;;;33.32;17.09;99535.97;4998548;28;45474;-79
2023/03/16 10:49:26;;;;;;;;;4.67;4.00;;;;;33.08;16.86;99526.09;4994105;28;46501;-79
2023/03/16 10:51:59;;;;;;;;;2.67;1.67;;;;;33.07;17.73;99529.81;4998531;28;45420;-79
2023/03/16 10:54:34;;;;;;;;;11.33;10.67;;;;;32.89;17.20;99531.28;4998965;28;45567;-79
2023/03/16 10:57:12;;;;;;;;;0.67;0.67;;;;;32.76;17.01;99527.81;4998407;28;45517;-79
2023/03/16 10:59:37;;;;;;;;;1.67;0.33;;;;;32.58;17.21;99527.44;4982841;28;45509;-79
2023/03/16 11:02:19;;;;;;;;;1.00;1.00;;;;;32.62;17.15;99523.50;4998375;28;45333;-79
2023/03/16 11:04:46;;;;;;;;;0.00;0.00;;;;;32.39;17.29;99522.53;4998628;28;45465;-79
2023/03/16 11:07:19;;;;;;;;;2.67;1.67;;;;;32.33;17.65;99523.88;4997507;28;46004;-79
2023/03/16 11:09:46;;;;;;;;;0.33;0.33;;;;;32.24;18.29;99513.78;4998164;28;45450;-74
2023/03/16 11:12:29;;;;;;;;;0.00;0.00;;;;;32.14;17.96;99510.94;4997971;28;45560;-81
2023/03/16 11:15:03;;;;;;;;;1.67;0.67;;;;;31.33;18.56;99488.09;4997583;28;45570;-80
2023/03/16 11:17:46;;;;;;;;;2.67;0.67;;;;;31.36;17.95;99520.28;4997473;28;45375;-80
2023/03/16 11:20:18;;;;;;;;;0.00;0.00;;;;;31.46;18.79;99509.69;4997975;28;45320;-81
2023/03/16 11:22:47;;;;;;;;;0.67;0.00;;;;;31.43;18.13;99507.19;4995941;28;45420;-77
2023/03/16 11:25:20;;;;;;;;;0.67;0.67;;;;;31.35;17.67;99520.38;4997865;28;45543;-80
2023/03/16 11:27:58;;;;;;;;;0.67;0.00;;;;;31.05;17.81;99511.69;4997289;28;45900;-82
2023/03/16 11:30:46;;;;;;;;;0.00;0.00;;;;;31.02;18.21;99514.63;4998360;28;45605;-77
2023/03/16 11:33:14;;;;;;;;;1.00;0.67;;;;;30.99;18.67;99525.59;4987887;28;45570;-79
2023/03/16 11:36:24;;;;;;;;;0.00;0.00;;;;;30.90;18.48;99512.78;4997833;28;45583;-74
2023/03/16 11:39:04;;;;;;;;;1.00;0.67;;;;;30.72;18.61;99507.69;5002758;28;46236;-82